Time;durP1;ratioP1;P1;durP2;ratioP2;P2;SDS_P1;SDS_P2;PMS_P1;PMS_P2;Temp;Humidity;BMP_temperature;BMP_pressure;BME280_temperature;BME280_humidity;BME280_pressure;Samples;Min_cycle;Max_cycle;Signal;HPM_P1;HPM_P2
2023/08/04 00:00:40;;;;;;;6.80;4.40;;;;;;;15.09;84.37;96622.71;104871;1259;97891;-83
2023/08/04 00:03:28;;;;;;;7.00;4.30;;;;;;;15.12;84.39;96621.20;104909;1261;103400;-84
2023/08/04 00:05:56;;;;;;;5.20;4.30;;;;;;;15.11;84.35;96617.34;104887;1260;101804;-83
2023/08/04 00:08:23;;;;;;;6.20;4.10;;;;;;;15.10;84.27;96624.89;104856;1259;101123;-82
2023/08/04 00:10:51;;;;;;;8.40;4.30;;;;;;;15.12;84.56;96630.55;105051;1272;96910;-83
2023/08/04 00:13:19;;;;;;;7.30;4.50;;;;;;;15.15;84.77;96629.56;104900;1259;96978;-82
2023/08/04 00:15:46;;;;;;;6.10;4.80;;;;;;;15.17;84.72;96622.52;104893;1267;103015;-82
2023/08/04 00:18:14;;;;;;;6.30;3.90;;;;;;;15.16;84.68;96627.67;104898;1259;102290;-82
2023/08/04 00:20:42;;;;;;;5.40;4.10;;;;;;;15.18;84.76;96635.02;104908;1278;100819;-82
2023/08/04 00:23:09;;;;;;;7.20;4.10;;;;;;;15.21;84.87;96644.35;104838;1272;96542;-83
2023/08/04 00:25:37;;;;;;;5.80;4.00;;;;;;;15.21;84.67;96642.88;104827;1260;97061;-82
2023/08/04 00:28:05;;;;;;;8.70;4.50;;;;;;;15.18;84.49;96640.89;104808;1262;112002;-82
2023/08/04 00:30:32;;;;;;;5.10;3.70;;;;;;;15.18;84.59;96642.59;104900;1259;100117;-82
2023/08/04 00:33:01;;;;;;;12.00;4.30;;;;;;;15.21;84.54;96649.41;104783;1259;109223;-82
2023/08/04 00:35:28;;;;;;;7.20;4.00;;;;;;;15.20;84.57;96644.51;104937;1259;96562;-82
2023/08/04 00:37:56;;;;;;;7.10;3.90;;;;;;;15.20;84.67;96640.38;104805;1261;97090;-82
2023/08/04 00:40:24;;;;;;;7.10;3.70;;;;;;;15.20;84.85;96637.94;104876;1276;101197;-82
2023/08/04 00:42:52;;;;;;;6.30;3.80;;;;;;;15.19;84.78;96636.51;105050;1256;102159;-81
2023/08/04 00:45:19;;;;;;;8.80;3.50;;;;;;;15.15;84.58;96639.14;105113;1261;100867;-82
2023/08/04 00:47:47;;;;;;;4.90;3.60;;;;;;;15.15;84.75;96646.20;105006;1259;96633;-82
2023/08/04 00:50:15;;;;;;;8.60;3.80;;;;;;;15.18;84.81;96649.60;104882;1262;97074;-82
2023/08/04 00:52:44;;;;;;;7.00;3.50;;;;;;;15.18;84.82;96656.95;104821;1259;103072;-83
2023/08/04 00:55:14;;;;;;;6.60;4.30;;;;;;;15.19;84.73;96663.74;104842;1269;102160;-82
2023/08/04 00:57:43;;;;;;;7.60;3.70;;;;;;;15.20;84.93;96667.56;104684;1262;100719;-82
2023/08/04 01:00:12;;;;;;;9.30;3.70;;;;;;;15.20;84.93;96675.40;104893;1275;96544;-83
2023/08/04 01:02:39;;;;;;;6.80;3.70;;;;;;;15.17;84.71;96681.51;104950;1256;96967;-83
2023/08/04 01:05:07;;;;;;;5.90;4.00;;;;;;;15.16;84.89;96685.58;104856;1259;101236;-83
2023/08/04 01:07:50;;;;;;;6.60;3.70;;;;;;;15.18;85.22;96687.81;104875;1256;101608;-82
2023/08/04 01:10:45;;;;;;;7.90;4.10;;;;;;;15.13;85.05;96687.00;104684;1262;107353;-83
2023/08/04 01:13:19;;;;;;;7.10;4.00;;;;;;;15.11;85.30;96688.51;105109;1262;97793;-83
2023/08/04 01:15:47;;;;;;;8.40;3.90;;;;;;;15.08;85.37;96696.38;104590;1269;98015;-84
2023/08/04 01:18:20;;;;;;;9.30;3.60;;;;;;;15.08;85.61;96697.63;104915;1259;103039;-84
2023/08/04 01:20:48;;;;;;;6.00;4.50;;;;;;;15.05;85.52;96699.88;104740;1268;102384;-83
2023/08/04 01:23:16;;;;;;;8.20;4.10;;;;;;;15.04;85.69;96699.04;104837;1259;97521;-82
2023/08/04 01:25:44;;;;;;;8.30;4.00;;;;;;;15.04;85.79;96695.19;104881;1259;97478;-81
2023/08/04 01:28:16;;;;;;;7.50;4.40;;;;;;;15.04;86.07;96694.86;104750;1259;145302;-84
2023/08/04 01:30:50;;;;;;;6.80;4.60;;;;;;;15.06;86.22;96696.96;104906;1259;103211;-82
2023/08/04 01:33:18;;;;;;;9.60;4.20;;;;;;;15.07;86.07;96697.23;104773;1256;102254;-82
2023/08/04 01:35:45;;;;;;;6.10;4.00;;;;;;;15.02;85.95;96697.45;104856;1260;101092;-82
2023/08/04 01:38:13;;;;;;;6.40;3.80;;;;;;;15.00;86.19;96693.92;104853;1256;97878;-82
2023/08/04 01:40:41;;;;;;;7.40;4.60;;;;;;;15.02;86.62;96694.88;104824;1256;96946;-82
2023/08/04 01:43:09;;;;;;;6.20;4.00;;;;;;;15.05;86.76;96686.92;105186;1259;103049;-81
2023/08/04 01:45:36;;;;;;;5.40;4.20;;;;;;;15.01;86.56;96674.60;104877;1259;111078;-82
2023/08/04 01:48:04;;;;;;;7.20;3.60;;;;;;;15.00;86.84;96675.52;104869;1271;107886;-82
2023/08/04 01:50:32;;;;;;;4.30;3.60;;;;;;;15.01;86.89;96671.34;104845;1259;96622;-82
2023/08/04 01:53:00;;;;;;;7.80;3.60;;;;;;;15.03;87.23;96669.46;105015;1259;97908;-81
2023/08/04 01:55:28;;;;;;;10.20;4.30;;;;;;;15.03;87.09;96666.91;104907;1259;102974;-82
2023/08/04 01:57:56;;;;;;;6.40;3.70;;;;;;;15.03;87.08;96664.30;104809;1257;102309;-83
2023/08/04 02:00:23;;;;;;;7.60;4.10;;;;;;;15.04;87.13;96667.08;104823;1260;100779;-83
2023/08/04 02:02:51;;;;;;;7.40;4.00;;;;;;;15.06;87.19;96666.89;104860;1257;96567;-82
2023/08/04 02:05:19;;;;;;;5.30;3.80;;;;;;;15.09;87.28;96670.34;104857;1279;97042;-83
2023/08/04 02:07:47;;;;;;;5.60;3.60;;;;;;;15.11;87.21;96677.30;104787;1273;102975;-83
2023/08/04 02:10:14;;;;;;;6.20;3.90;;;;;;;15.13;87.42;96678.90;104852;1259;102370;-82
2023/08/04 02:12:42;;;;;;;8.00;4.10;;;;;;;15.14;87.49;96679.39;104868;1259;100661;-83
2023/08/04 02:15:10;;;;;;;7.70;3.70;;;;;;;15.15;87.49;96681.42;104831;1272;96479;-81
2023/08/04 02:17:38;;;;;;;10.20;3.90;;;;;;;15.12;87.49;96682.20;104934;1260;97065;-82
2023/08/04 02:20:06;;;;;;;8.00;3.80;;;;;;;15.10;87.55;96683.92;104864;1256;102141;-83
2023/08/04 02:22:34;;;;;;;7.90;4.10;;;;;;;15.09;87.76;96690.94;104808;1262;102113;-83
2023/08/04 02:25:02;;;;;;;5.10;3.90;;;;;;;15.11;87.83;96686.16;104801;1261;100786;-82
2023/08/04 02:27:29;;;;;;;5.50;3.70;;;;;;;15.11;87.69;96685.23;104872;1259;96544;-82
2023/08/04 02:29:57;;;;;;;7.40;3.30;;;;;;;15.07;87.64;96687.56;104852;1259;97992;-82
2023/08/04 18:44:08;;;;;;;10.70;5.30;;;;;;;21.29;68.40;96914.88;105533;1263;95901;-86
2023/08/04 18:47:15;;;;;;;9.10;5.80;;;;;;;21.22;68.57;96906.67;106805;1249;99405;-84
2023/08/04 18:50:22;;;;;;;16.50;7.60;;;;;;;21.16;68.68;96897.92;105968;1257;96328;-85
2023/08/04 18:53:29;;;;;;;8.90;5.80;;;;;;;21.12;69.08;96898.48;105070;1261;96836;-88
2023/08/04 18:56:36;;;;;;;12.40;5.40;;;;;;;21.10;69.58;96898.21;104509;1279;100964;-84
